createdAt,value
2017-12-13T00:02:17.542Z,100243.38
2017-12-13T00:04:44.965Z,100242.39
2017-12-13T00:07:12.386Z,100235.48
2017-12-13T00:09:39.809Z,100233.84
2017-12-13T00:12:07.229Z,100234.91
2017-12-13T00:14:34.649Z,100237.34
2017-12-13T00:17:02.078Z,100239.36
2017-12-13T00:19:29.502Z,100236.16
2017-12-13T00:21:56.938Z,100232.92
2017-12-13T00:24:24.349Z,100233.19
2017-12-13T00:26:51.770Z,100230.79
2017-12-13T00:29:19.189Z,100225.81
2017-12-13T00:31:46.614Z,100224.27
2017-12-13T00:34:14.042Z,100219.66
2017-12-13T00:36:41.457Z,100216.18
2017-12-13T00:39:08.885Z,100207.43
2017-12-13T00:41:36.305Z,100199.13
2017-12-13T00:44:03.725Z,100193.11
2017-12-13T00:46:31.149Z,100184.23
2017-12-13T00:48:58.582Z,100195.20
2017-12-13T00:51:26.002Z,100194.55
2017-12-13T00:53:53.423Z,100200.88
2017-12-13T00:56:20.853Z,100195.11
2017-12-13T00:58:48.281Z,100192.42
2017-12-13T01:01:15.694Z,100187.64
2017-12-13T01:03:43.109Z,100185.75
2017-12-13T01:06:10.526Z,100176.14
2017-12-13T01:08:37.947Z,100178.45
2017-12-13T01:11:05.366Z,100177.67
2017-12-13T01:13:32.778Z,100172.80
2017-12-13T01:16:00.201Z,100173.66
2017-12-13T01:18:27.624Z,100170.87
2017-12-13T01:20:55.051Z,100170.61
2017-12-13T01:23:22.481Z,100168.73
2017-12-13T01:25:49.898Z,100163.47
2017-12-13T01:28:17.321Z,100165.91
2017-12-13T01:30:44.734Z,100166.05
2017-12-13T01:33:12.166Z,100165.21
2017-12-13T01:35:39.588Z,100165.64
2017-12-13T01:38:06.997Z,100169.98
2017-12-13T01:40:34.443Z,100174.63
2017-12-13T01:43:01.859Z,100171.03
2017-12-13T01:45:29.288Z,100175.58
2017-12-13T01:47:56.702Z,100177.50
2017-12-13T01:50:24.110Z,100173.51
2017-12-13T01:52:51.530Z,100165.55
2017-12-13T01:55:18.950Z,100166.95
2017-12-13T01:57:46.378Z,100153.73
2017-12-13T02:00:13.789Z,100157.53
2017-12-13T02:02:41.206Z,100146.38
2017-12-13T02:05:08.658Z,100134.38
2017-12-13T02:07:36.086Z,100118.45
2017-12-13T02:10:03.518Z,100123.39
2017-12-13T02:12:30.934Z,100122.87
2017-12-13T02:14:58.357Z,100122.72
2017-12-13T02:17:25.785Z,100108.80
2017-12-13T02:19:53.253Z,100119.45
2017-12-13T02:22:20.618Z,100115.70
2017-12-13T02:24:48.030Z,100112.28
2017-12-13T02:27:15.474Z,100102.58
2017-12-13T02:29:42.885Z,100108.02
2017-12-13T02:32:10.306Z,100100.33
2017-12-13T02:34:37.730Z,100099.58
2017-12-13T02:37:05.156Z,100092.50
2017-12-13T02:39:32.586Z,100081.19
2017-12-13T02:42:00.007Z,100077.67
2017-12-13T02:44:27.419Z,100082.07
2017-12-13T02:46:54.841Z,100078.22
2017-12-13T02:49:22.262Z,100076.58
2017-12-13T02:51:49.685Z,100082.58
2017-12-13T02:54:17.105Z,100066.22
2017-12-13T02:56:44.529Z,100072.45
2017-12-13T02:59:11.955Z,100068.27
2017-12-13T03:01:39.370Z,100066.48
2017-12-13T03:04:06.790Z,100049.78
2017-12-13T03:06:34.226Z,100056.30
2017-12-13T03:09:01.646Z,100047.10
2017-12-13T03:11:29.062Z,100045.69
2017-12-13T03:13:56.493Z,100040.44
2017-12-13T03:16:23.929Z,100031.33
2017-12-13T03:18:51.345Z,100022.78
2017-12-13T03:21:18.775Z,100019.50
2017-12-13T03:23:46.190Z,100013.59
2017-12-13T03:26:13.609Z,100004.87
2017-12-13T03:28:41.034Z,100002.66
2017-12-13T03:31:08.469Z,100007.83
2017-12-13T03:33:35.883Z,100004.78
2017-12-13T03:36:03.292Z,99992.70
2017-12-13T03:38:30.711Z,99984.31
2017-12-13T03:40:58.128Z,99990.83
2017-12-13T03:43:25.541Z,99982.34
2017-12-13T03:45:52.958Z,99974.98
2017-12-13T03:48:20.386Z,99975.87
2017-12-13T03:50:47.798Z,99972.34
2017-12-13T03:53:15.206Z,99968.48
2017-12-13T03:55:42.625Z,99956.99
2017-12-13T03:58:10.043Z,99958.21
2017-12-13T04:00:37.465Z,99946.71
2017-12-13T04:03:04.869Z,99947.22
2017-12-13T04:05:32.293Z,99940.30
2017-12-13T04:07:59.710Z,99942.59
2017-12-13T04:10:27.126Z,99938.92
2017-12-13T04:12:54.562Z,99940.05
2017-12-13T04:15:21.969Z,99938.83
2017-12-13T04:17:49.390Z,99937.42
2017-12-13T04:20:16.799Z,99935.30
2017-12-13T04:22:44.238Z,99935.39
2017-12-13T04:25:11.646Z,99928.72
2017-12-13T04:27:39.061Z,99924.87
2017-12-13T04:30:06.482Z,99928.89
2017-12-13T04:32:33.901Z,99914.34
2017-12-13T04:35:01.329Z,99910.55
2017-12-13T04:37:28.750Z,99901.52
2017-12-13T04:39:56.177Z,99907.03
2017-12-13T04:42:23.598Z,99903.00
2017-12-13T04:44:51.025Z,99898.06
2017-12-13T04:47:18.437Z,99894.94
2017-12-13T04:49:45.854Z,99887.88
2017-12-13T04:52:13.266Z,99879.00
2017-12-13T04:54:40.688Z,99878.27
2017-12-13T04:57:08.116Z,99875.12
2017-12-13T04:59:35.526Z,99872.56
2017-12-13T05:02:02.945Z,99867.98
2017-12-13T05:04:30.359Z,99863.52
2017-12-13T05:06:57.766Z,99865.55
2017-12-13T05:09:25.202Z,99859.97
2017-12-13T05:11:52.621Z,99850.11
2017-12-13T05:14:20.058Z,99841.56
2017-12-13T05:16:47.473Z,99840.18
2017-12-13T05:19:14.895Z,99829.02
2017-12-13T05:21:42.313Z,99839.34
2017-12-13T05:24:09.729Z,99833.42
2017-12-13T05:26:37.150Z,99836.23
2017-12-13T05:29:04.565Z,99843.80
2017-12-13T05:31:33.170Z,99841.16
2017-12-13T05:34:00.587Z,99842.29
2017-12-13T05:36:28.077Z,99833.03
2017-12-13T05:38:55.502Z,99828.68
2017-12-13T05:41:22.914Z,99819.22
2017-12-13T05:43:50.329Z,99820.44
2017-12-13T05:46:17.751Z,99808.83
2017-12-13T05:48:45.174Z,99806.12
2017-12-13T05:51:12.610Z,99802.86
2017-12-13T05:53:40.026Z,99797.82
2017-12-13T05:56:07.446Z,99795.19
2017-12-13T05:58:34.866Z,99790.09
2017-12-13T06:01:02.296Z,99790.18
2017-12-13T06:03:29.705Z,99786.78
2017-12-13T06:05:57.113Z,99780.27
2017-12-13T06:08:24.534Z,99780.59
2017-12-13T06:10:51.949Z,99777.80
2017-12-13T06:13:19.624Z,99765.19
2017-12-13T06:15:47.034Z,99764.36
2017-12-13T06:18:14.445Z,99753.06
2017-12-13T06:20:41.870Z,99747.53
2017-12-13T06:23:09.282Z,99744.96
2017-12-13T06:25:36.709Z,99742.20
2017-12-13T06:28:04.124Z,99729.77
2017-12-13T06:30:31.537Z,99731.05
2017-12-13T06:32:58.955Z,99740.48
2017-12-13T06:35:26.373Z,99730.37
2017-12-13T06:37:53.801Z,99727.21
2017-12-13T06:40:21.210Z,99724.58
2017-12-13T06:42:48.625Z,99719.86
2017-12-13T06:45:16.042Z,99718.17
2017-12-13T06:47:43.453Z,99698.94
2017-12-13T06:50:10.886Z,99697.57
2017-12-13T06:52:38.305Z,99688.99
2017-12-13T06:55:05.734Z,99682.42
2017-12-13T06:57:33.162Z,99677.20
2017-12-13T07:00:00.620Z,99670.31
2017-12-13T07:02:28.037Z,99665.34
2017-12-13T07:04:55.449Z,99659.71
2017-12-13T07:07:22.875Z,99662.83
2017-12-13T07:09:50.299Z,99665.66
2017-12-13T07:12:17.713Z,99665.61
2017-12-13T07:14:45.146Z,99653.53
2017-12-13T07:17:12.562Z,99653.32
2017-12-13T07:19:39.982Z,99650.22
2017-12-13T07:22:07.401Z,99641.67
2017-12-13T07:24:34.818Z,99636.75
2017-12-13T07:27:02.225Z,99635.23
2017-12-13T07:29:29.627Z,99632.91
2017-12-13T07:31:57.041Z,99634.87
2017-12-13T07:34:24.449Z,99623.73
2017-12-13T07:36:51.865Z,99610.63
2017-12-13T07:39:19.279Z,99610.94
2017-12-13T07:41:46.693Z,99613.52
2017-12-13T07:44:14.106Z,99606.27
2017-12-13T07:46:41.518Z,99599.83
2017-12-13T07:49:08.924Z,99597.98
2017-12-13T07:51:36.325Z,99595.73
2017-12-13T07:54:03.729Z,99588.48
2017-12-13T07:56:31.139Z,99586.02
2017-12-13T07:58:58.566Z,99573.80
2017-12-13T08:01:25.974Z,99583.39
2017-12-13T08:03:53.383Z,99575.05
2017-12-13T08:06:20.814Z,99560.09
2017-12-13T08:08:48.219Z,99556.31
2017-12-13T08:11:15.637Z,99546.80
2017-12-13T08:13:43.046Z,99542.80
2017-12-13T08:16:10.462Z,99541.17
2017-12-13T08:18:37.861Z,99534.70
2017-12-13T08:21:05.257Z,99533.08
2017-12-13T08:23:32.674Z,99527.89
2017-12-13T08:26:00.070Z,99524.97
2017-12-13T08:28:27.474Z,99518.22
2017-12-13T08:30:54.869Z,99513.81
2017-12-13T08:33:22.292Z,99504.92
2017-12-13T08:35:49.690Z,99500.39
2017-12-13T08:38:17.094Z,99493.12
2017-12-13T08:40:44.497Z,99472.91
2017-12-13T08:43:11.911Z,99471.02
2017-12-13T08:45:39.326Z,99470.00
2017-12-13T08:48:06.722Z,99464.02
2017-12-13T08:50:34.143Z,99466.66
2017-12-13T08:53:01.546Z,99467.92
2017-12-13T08:55:28.945Z,99456.36
2017-12-13T08:57:56.347Z,99456.52
2017-12-13T09:00:23.745Z,99451.55
2017-12-13T09:02:51.158Z,99452.39
2017-12-13T09:05:18.554Z,99449.94
2017-12-13T09:07:45.966Z,99442.84
2017-12-13T09:10:13.366Z,99439.59
2017-12-13T09:12:40.766Z,99429.83
2017-12-13T09:15:08.173Z,99438.95
2017-12-13T09:17:35.574Z,99433.25
2017-12-13T09:20:02.981Z,99424.77
2017-12-13T09:22:30.378Z,99412.81
2017-12-13T09:24:57.790Z,99399.36
2017-12-13T09:27:25.194Z,99393.52
2017-12-13T09:29:52.594Z,99383.70
2017-12-13T09:32:20.266Z,99387.33
2017-12-13T09:34:47.671Z,99381.64
2017-12-13T09:37:15.090Z,99376.16
2017-12-13T09:39:42.489Z,99374.84
2017-12-13T09:42:09.913Z,99363.43
2017-12-13T09:44:37.334Z,99368.92
2017-12-13T09:47:04.753Z,99360.68
2017-12-13T09:49:32.174Z,99350.77
2017-12-13T09:51:59.583Z,99345.60
2017-12-13T09:54:27.013Z,99327.71
2017-12-13T09:56:54.430Z,99332.78
2017-12-13T09:59:22.694Z,99334.78
2017-12-13T10:01:50.099Z,99316.19
2017-12-13T10:04:17.507Z,99311.20
2017-12-13T10:06:44.931Z,99288.36
2017-12-13T10:09:12.341Z,99295.13
2017-12-13T10:11:39.754Z,99282.89
2017-12-13T10:14:07.162Z,99276.87
2017-12-13T10:16:34.584Z,99268.48
2017-12-13T10:19:01.981Z,99268.60
2017-12-13T10:21:29.387Z,99259.77
2017-12-13T10:23:56.808Z,99249.35
2017-12-13T10:26:24.226Z,99240.27
2017-12-13T10:28:51.638Z,99235.13
2017-12-13T10:31:19.046Z,99226.42
2017-12-13T10:33:46.457Z,99204.73
2017-12-13T10:36:13.858Z,99195.30
2017-12-13T10:38:41.274Z,99166.79
2017-12-13T10:41:08.690Z,99163.98
2017-12-13T10:43:36.115Z,99162.24
2017-12-13T10:46:03.521Z,99145.23
2017-12-13T10:48:30.954Z,99140.69
2017-12-13T10:50:58.382Z,99132.53
2017-12-13T10:53:25.801Z,99131.45
2017-12-13T10:55:53.218Z,99123.73
2017-12-13T10:58:20.630Z,99116.13
2017-12-13T11:00:48.062Z,99110.14
2017-12-13T11:03:15.469Z,99115.30
2017-12-13T11:05:42.874Z,99100.31
2017-12-13T11:08:10.282Z,99092.89
2017-12-13T11:10:37.698Z,99095.84
2017-12-13T11:13:05.114Z,99093.42
2017-12-13T11:15:32.521Z,99084.38
2017-12-13T11:17:59.940Z,99072.61
2017-12-13T11:20:27.335Z,99055.34
2017-12-13T11:22:54.735Z,99070.28
2017-12-13T11:25:22.154Z,99044.80
2017-12-13T11:27:49.955Z,99055.05
2017-12-13T11:30:17.382Z,99043.17
2017-12-13T11:32:44.791Z,99041.24
2017-12-13T11:35:12.198Z,99038.48
2017-12-13T11:37:39.594Z,99030.76
2017-12-13T11:40:06.990Z,99022.53
2017-12-13T11:42:34.398Z,99019.88
2017-12-13T11:45:01.802Z,99006.48
2017-12-13T11:47:29.214Z,98993.66
2017-12-13T11:49:56.609Z,98989.51
2017-12-13T11:52:25.952Z,98979.55
2017-12-13T11:54:53.365Z,98982.92
2017-12-13T11:57:20.776Z,98969.21
2017-12-13T11:59:48.171Z,98967.48
2017-12-13T12:02:15.574Z,98967.08
2017-12-13T12:04:42.993Z,98956.75
2017-12-13T12:07:10.400Z,98955.91
2017-12-13T12:09:37.790Z,98944.61
2017-12-13T12:12:05.197Z,98933.87
2017-12-13T12:14:32.598Z,98932.14
2017-12-13T12:17:00.026Z,98932.75
2017-12-13T12:19:27.422Z,98926.33
2017-12-13T12:21:54.823Z,98923.19
2017-12-13T12:24:22.226Z,98922.70
2017-12-13T12:26:49.628Z,98915.81
2017-12-13T12:29:17.040Z,98922.80
2017-12-13T12:31:44.445Z,98910.90
2017-12-13T12:34:11.848Z,98898.30
2017-12-13T12:36:39.258Z,98898.09
2017-12-13T12:39:06.658Z,98891.28
2017-12-13T12:41:34.073Z,98892.38
2017-12-13T12:44:01.466Z,98886.67
2017-12-13T12:46:28.871Z,98884.86
2017-12-13T12:48:56.275Z,98882.86
2017-12-13T12:51:23.674Z,98875.16
2017-12-13T12:53:51.081Z,98875.30
2017-12-13T12:56:18.477Z,98867.39
2017-12-13T12:58:45.870Z,98871.94
2017-12-13T13:01:13.278Z,98857.32
2017-12-13T13:03:40.674Z,98845.34
2017-12-13T13:06:08.086Z,98857.27
2017-12-13T13:08:35.481Z,98853.77
2017-12-13T13:11:02.878Z,98846.02
2017-12-13T13:13:30.286Z,98840.73
2017-12-13T13:15:57.682Z,98840.94
2017-12-13T13:18:25.094Z,98843.29
2017-12-13T13:20:52.490Z,98840.56
2017-12-13T13:23:19.885Z,98848.12
2017-12-13T13:25:47.305Z,98839.59
2017-12-13T13:28:14.734Z,98851.63
2017-12-13T13:30:42.152Z,98846.98
2017-12-13T13:33:09.556Z,98828.71
2017-12-13T13:35:36.960Z,98819.95
2017-12-13T13:38:04.358Z,98822.50
2017-12-13T13:40:31.758Z,98824.73
2017-12-13T13:42:59.169Z,98824.15
2017-12-13T13:45:26.569Z,98814.40
2017-12-13T13:47:53.982Z,98808.59
2017-12-13T13:50:21.395Z,98819.37
2017-12-13T13:52:48.801Z,98797.55
2017-12-13T13:55:16.225Z,98803.05
2017-12-13T13:57:43.638Z,98797.34
2017-12-13T14:00:11.051Z,98789.11
2017-12-13T14:02:38.458Z,98784.45
2017-12-13T14:05:05.854Z,98782.00
2017-12-13T14:07:33.273Z,98784.25
2017-12-13T14:10:00.674Z,98774.89
2017-12-13T14:12:28.074Z,98775.69
2017-12-13T14:14:55.490Z,98765.95
2017-12-13T14:17:22.898Z,98760.61
2017-12-13T14:19:50.359Z,98758.26
2017-12-13T14:22:17.753Z,98763.34
2017-12-13T14:24:45.174Z,98754.09
2017-12-13T14:27:12.594Z,98753.30
2017-12-13T14:29:40.014Z,98747.00
2017-12-13T14:32:07.426Z,98747.80
2017-12-13T14:34:34.830Z,98744.05
2017-12-13T14:37:02.257Z,98741.13
2017-12-13T14:39:29.666Z,98746.58
2017-12-13T14:41:57.066Z,98743.30
2017-12-13T14:44:24.476Z,98741.66
2017-12-13T14:46:51.898Z,98739.36
2017-12-13T14:49:19.317Z,98737.96
2017-12-13T14:51:46.746Z,98729.86
2017-12-13T14:54:14.175Z,98736.16
2017-12-13T14:56:41.585Z,98724.55
2017-12-13T14:59:08.990Z,98732.28
2017-12-13T15:01:36.398Z,98734.81
2017-12-13T15:04:03.811Z,98727.81
2017-12-13T15:06:31.209Z,98724.34
2017-12-13T15:08:58.621Z,98724.25
2017-12-13T15:11:26.034Z,98727.98
2017-12-13T15:13:53.442Z,98718.08
2017-12-13T15:16:20.853Z,98715.25
2017-12-13T15:18:48.258Z,98718.88
2017-12-13T15:21:15.686Z,98708.09
2017-12-13T15:23:43.082Z,98711.63
2017-12-13T15:26:10.478Z,98699.83
2017-12-13T15:28:38.362Z,98692.20
2017-12-13T15:31:05.770Z,98691.41
2017-12-13T15:33:33.204Z,98689.97
2017-12-13T15:36:00.606Z,98681.66
2017-12-13T15:38:29.102Z,98685.23
2017-12-13T15:40:56.506Z,98687.36
2017-12-13T15:43:23.953Z,98676.70
2017-12-13T15:45:51.424Z,98679.00
2017-12-13T15:48:18.851Z,98664.41
2017-12-13T15:50:46.273Z,98666.35
2017-12-13T15:53:13.669Z,98659.24
2017-12-13T15:55:42.141Z,98654.06
2017-12-13T15:58:09.556Z,98655.36
2017-12-13T16:00:37.086Z,98647.44
2017-12-13T16:03:04.532Z,98641.70
2017-12-13T16:05:32.923Z,98652.10
2017-12-13T16:08:00.355Z,98636.13
2017-12-13T16:10:27.976Z,98632.98
2017-12-13T16:12:55.408Z,98636.44
2017-12-13T16:15:22.867Z,98631.34
2017-12-13T16:17:50.834Z,98630.31
2017-12-13T16:20:18.258Z,98618.38
2017-12-13T16:22:45.674Z,98616.14
2017-12-13T16:25:13.098Z,98611.74
2017-12-13T16:27:40.527Z,98610.65
2017-12-13T16:30:07.973Z,98604.23
2017-12-13T16:32:35.390Z,98599.33
2017-12-13T16:35:02.877Z,98596.84
2017-12-13T16:37:30.300Z,98596.52
2017-12-13T16:39:57.849Z,98592.53
2017-12-13T16:42:25.282Z,98586.84
2017-12-13T16:44:52.694Z,98581.55
2017-12-13T16:47:20.086Z,98570.11
2017-12-13T16:49:47.502Z,98557.06
2017-12-13T16:52:14.919Z,98556.77
2017-12-13T16:54:42.347Z,98547.81
2017-12-13T16:57:09.762Z,98536.38
2017-12-13T16:59:37.166Z,98533.86
2017-12-13T17:02:04.581Z,98521.94
2017-12-13T17:04:31.994Z,98522.27
2017-12-13T17:06:59.418Z,98519.04
2017-12-13T17:09:26.831Z,98509.22
2017-12-13T17:11:54.251Z,98506.75
2017-12-13T17:14:21.658Z,98498.53
2017-12-13T17:16:49.061Z,98495.41
2017-12-13T17:19:16.494Z,98488.62
2017-12-13T17:21:43.890Z,98472.28
2017-12-13T17:24:11.321Z,98461.81
2017-12-13T17:26:38.770Z,98458.33
2017-12-13T17:29:06.168Z,98446.56
2017-12-13T17:31:33.570Z,98435.52
2017-12-13T17:34:00.966Z,98430.39
2017-12-13T17:36:28.364Z,98427.09
2017-12-13T17:38:55.770Z,98407.59
2017-12-13T17:41:23.226Z,98402.84
2017-12-13T17:43:50.652Z,98386.42
2017-12-13T17:46:18.051Z,98381.22
2017-12-13T17:48:45.458Z,98368.41
2017-12-13T17:51:12.861Z,98359.61
2017-12-13T17:53:40.266Z,98361.39
2017-12-13T17:56:07.673Z,98348.59
2017-12-13T17:58:35.078Z,98348.73
2017-12-13T18:01:02.487Z,98337.91
2017-12-13T18:03:29.882Z,98328.06
2017-12-13T18:05:57.334Z,98322.91
2017-12-13T18:08:24.746Z,98318.55
2017-12-13T18:10:52.158Z,98304.27
2017-12-13T18:13:19.554Z,98287.13
2017-12-13T18:15:46.970Z,98285.75
2017-12-13T18:18:14.369Z,98271.95
2017-12-13T18:20:41.794Z,98258.99
2017-12-13T18:23:09.190Z,98255.36
2017-12-13T18:25:36.602Z,98246.70
2017-12-13T18:28:04.002Z,98245.42
2017-12-13T18:30:31.402Z,98229.91
2017-12-13T18:32:58.814Z,98223.67
2017-12-13T18:35:26.650Z,98223.39
2017-12-13T18:37:54.153Z,98208.87
2017-12-13T18:40:21.571Z,98196.75
2017-12-13T18:42:48.966Z,98191.33
2017-12-13T18:45:16.385Z,98175.77
2017-12-13T18:47:43.786Z,98172.55
2017-12-13T18:50:11.181Z,98164.75
2017-12-13T18:52:38.586Z,98158.36
2017-12-13T18:55:05.997Z,98140.19
2017-12-13T18:57:33.414Z,98131.73
2017-12-13T19:00:00.822Z,98123.05
2017-12-13T19:02:28.222Z,98110.07
2017-12-13T19:04:55.626Z,98101.17
2017-12-13T19:07:23.030Z,98076.45
2017-12-13T19:09:50.442Z,98067.81
2017-12-13T19:12:17.875Z,98065.50
2017-12-13T19:14:45.286Z,98058.55
2017-12-13T19:17:12.690Z,98039.63
2017-12-13T19:19:40.114Z,98026.58
2017-12-13T19:22:07.518Z,98019.00
2017-12-13T19:24:34.949Z,98011.77
2017-12-13T19:27:02.430Z,97992.02
2017-12-13T19:29:29.842Z,97976.13
2017-12-13T19:31:57.245Z,97970.15
2017-12-13T19:34:24.673Z,97967.78
2017-12-13T19:36:52.073Z,97955.27
2017-12-13T19:39:19.492Z,97953.24
2017-12-13T19:41:46.913Z,97954.22
2017-12-13T19:44:14.321Z,97949.51
2017-12-13T19:46:41.734Z,97947.34
2017-12-13T19:49:09.146Z,97943.39
2017-12-13T19:51:36.620Z,97941.64
2017-12-13T19:54:04.714Z,97935.87
2017-12-13T19:56:32.132Z,97935.03
2017-12-13T19:58:59.569Z,97925.56
2017-12-13T20:01:27.000Z,97914.30
2017-12-13T20:03:54.409Z,97926.14
2017-12-13T20:06:21.814Z,97898.92
2017-12-13T20:08:49.230Z,97877.77
2017-12-13T20:11:16.639Z,97861.63
2017-12-13T20:13:44.058Z,97859.62
2017-12-13T20:16:11.478Z,97849.38
2017-12-13T20:18:38.889Z,97846.03
2017-12-13T20:21:07.073Z,97834.27
2017-12-13T20:23:34.489Z,97830.34
2017-12-13T20:26:01.918Z,97821.59
2017-12-13T20:28:29.327Z,97812.88
2017-12-13T20:30:56.750Z,97814.95
2017-12-13T20:33:24.176Z,97780.68
2017-12-13T20:35:51.578Z,97775.27
2017-12-13T20:38:18.993Z,97773.70
2017-12-13T20:40:46.398Z,97766.42
2017-12-13T20:43:13.810Z,97761.86
2017-12-13T20:45:41.253Z,97750.42
2017-12-13T20:48:08.658Z,97747.97
2017-12-13T20:50:36.082Z,97720.01
2017-12-13T20:53:03.486Z,97706.11
2017-12-13T20:55:30.906Z,97716.59
2017-12-13T20:57:58.319Z,97708.80
2017-12-13T21:00:25.782Z,97722.57
2017-12-13T21:02:53.213Z,97710.89
2017-12-13T21:05:20.625Z,97692.47
2017-12-13T21:07:48.035Z,97694.61
2017-12-13T21:10:15.444Z,97676.14
2017-12-13T21:12:42.858Z,97666.16
2017-12-13T21:15:10.278Z,97660.08
2017-12-13T21:17:37.738Z,97663.77
2017-12-13T21:20:05.098Z,97677.65
2017-12-13T21:22:32.517Z,97665.92
2017-12-13T21:24:59.926Z,97677.23
2017-12-13T21:27:27.340Z,97690.61
2017-12-13T21:29:54.765Z,97695.98
2017-12-13T21:32:22.173Z,97696.84
2017-12-13T21:34:49.585Z,97706.66
2017-12-13T21:37:16.997Z,97719.69
2017-12-13T21:39:44.450Z,97721.80
2017-12-13T21:42:11.826Z,97724.89
2017-12-13T21:44:39.242Z,97708.73
2017-12-13T21:47:06.646Z,97699.66
2017-12-13T21:49:34.055Z,97706.30
2017-12-13T21:52:01.510Z,97707.77
2017-12-13T21:54:28.902Z,97737.53
2017-12-13T21:56:56.333Z,97748.53
2017-12-13T21:59:23.738Z,97757.80
2017-12-13T22:01:51.158Z,97744.03
2017-12-13T22:04:18.573Z,97749.92
2017-12-13T22:06:45.969Z,97767.72
2017-12-13T22:09:13.539Z,97781.81
2017-12-13T22:11:40.938Z,97777.23
2017-12-13T22:14:08.352Z,97785.63
2017-12-13T22:16:35.780Z,97786.68
2017-12-13T22:19:03.201Z,97787.37
2017-12-13T22:21:30.610Z,97785.19
2017-12-13T22:23:58.017Z,97795.40
2017-12-13T22:26:25.430Z,97800.80
2017-12-13T22:28:52.850Z,97800.56
2017-12-13T22:31:20.266Z,97796.91
2017-12-13T22:33:47.669Z,97817.86
2017-12-13T22:36:15.093Z,97814.98
2017-12-13T22:38:42.507Z,97821.30
2017-12-13T22:41:09.925Z,97836.63
2017-12-13T22:43:37.334Z,97832.47
2017-12-13T22:46:04.740Z,97858.13
2017-12-13T22:48:32.147Z,97845.39
2017-12-13T22:50:59.559Z,97852.66
2017-12-13T22:53:26.970Z,97856.22
2017-12-13T22:55:54.389Z,97860.00
2017-12-13T22:58:21.798Z,97848.62
2017-12-13T23:00:50.989Z,97858.53
2017-12-13T23:03:18.404Z,97862.70
2017-12-13T23:05:45.809Z,97860.19
2017-12-13T23:08:13.234Z,97869.91
2017-12-13T23:10:40.638Z,97864.78
2017-12-13T23:13:08.046Z,97861.84
2017-12-13T23:15:35.453Z,97863.38
2017-12-13T23:18:02.864Z,97868.02
2017-12-13T23:20:30.286Z,97867.70
2017-12-13T23:22:57.689Z,97864.92
2017-12-13T23:25:25.097Z,97858.44
2017-12-13T23:27:52.511Z,97856.84
2017-12-13T23:30:19.914Z,97859.97
2017-12-13T23:32:47.334Z,97861.94
2017-12-13T23:35:14.791Z,97855.78
2017-12-13T23:37:42.190Z,97848.70
2017-12-13T23:40:09.614Z,97848.05
2017-12-13T23:42:37.018Z,97847.87
2017-12-13T23:45:04.436Z,97857.13
2017-12-13T23:47:31.838Z,97869.30
2017-12-13T23:49:59.253Z,97874.92
2017-12-13T23:52:26.671Z,97878.68
2017-12-13T23:54:54.086Z,97886.52
2017-12-13T23:57:21.535Z,97896.16
2017-12-13T23:59:48.973Z,97898.32
